createdAt,value
2019-02-18T00:01:27.512Z,100985.05
2019-02-18T00:04:15.239Z,100980.38
2019-02-18T00:06:55.772Z,100973.48
2019-02-18T00:09:43.230Z,100967.09
2019-02-18T00:12:23.688Z,100968.22
2019-02-18T00:15:04.832Z,100975.58
2019-02-18T00:17:52.086Z,100976.24
2019-02-18T00:20:33.196Z,100977.71
2019-02-18T00:23:20.631Z,100976.34
2019-02-18T00:26:01.085Z,100972.91
2019-02-18T00:28:48.288Z,100967.04
2019-02-18T00:31:28.700Z,100969.30
2019-02-18T00:34:16.153Z,100970.58
2019-02-18T00:36:56.504Z,100972.80
2019-02-18T00:39:43.920Z,100966.88
2019-02-18T00:42:24.470Z,100962.25
2019-02-18T00:45:12.116Z,100958.85
2019-02-18T00:47:59.387Z,100960.05
2019-02-18T00:50:38.082Z,100955.30
2019-02-18T00:53:19.314Z,100959.78
2019-02-18T00:56:06.542Z,100961.67
2019-02-18T00:58:46.509Z,100961.11
2019-02-18T01:01:26.480Z,100955.77
2019-02-18T01:04:13.702Z,100953.36
2019-02-18T01:07:01.445Z,100953.06
2019-02-18T01:09:41.436Z,100952.31
2019-02-18T01:12:28.675Z,100948.97
2019-02-18T01:15:10.229Z,100946.84
2019-02-18T01:17:50.299Z,100951.14
2019-02-18T01:20:37.549Z,100948.58
2019-02-18T01:23:19.398Z,100944.28
2019-02-18T01:26:26.109Z,100948.84
2019-02-18T01:29:06.791Z,100950.19
2019-02-18T01:31:54.031Z,100945.72
2019-02-18T01:34:34.971Z,100943.96
2019-02-18T01:37:22.213Z,100941.98
2019-02-18T01:40:02.682Z,100944.01
2019-02-18T01:42:50.100Z,100946.50
2019-02-18T01:45:30.351Z,100934.12
2019-02-18T01:48:17.985Z,100938.23
2019-02-18T01:50:58.507Z,100932.69
2019-02-18T01:53:45.945Z,100928.10
2019-02-18T01:56:26.428Z,100931.23
2019-02-18T01:59:13.870Z,100928.28
2019-02-18T02:01:54.396Z,100926.16
2019-02-18T02:04:41.607Z,100921.95
2019-02-18T02:07:21.875Z,100921.30
2019-02-18T02:13:44.903Z,100916.41
2019-02-18T02:16:32.139Z,100912.47
2019-02-18T02:19:19.369Z,100912.23
2019-02-18T02:21:59.984Z,100904.65
2019-02-18T02:24:47.624Z,100901.77
2019-02-18T02:27:28.518Z,100899.25
2019-02-18T02:30:15.719Z,100896.77
2019-02-18T02:32:56.468Z,100896.75
2019-02-18T02:35:43.700Z,100890.94
2019-02-18T02:38:23.818Z,100888.55
2019-02-18T02:41:11.230Z,100892.20
2019-02-18T02:43:52.000Z,100897.33
2019-02-18T02:46:39.233Z,100890.08
2019-02-18T02:49:19.898Z,100892.41
2019-02-18T02:52:07.125Z,100888.52
2019-02-18T02:54:47.851Z,100884.42
2019-02-18T02:57:35.088Z,100882.02
2019-02-18T03:00:23.300Z,100887.27
2019-02-18T03:03:03.896Z,100880.70
2019-02-18T03:05:51.502Z,100885.64
2019-02-18T03:08:32.393Z,100877.23
2019-02-18T03:11:19.612Z,100883.28
2019-02-18T03:14:00.316Z,100882.96
2019-02-18T03:16:47.744Z,100880.66
2019-02-18T03:19:28.578Z,100880.48
2019-02-18T03:22:35.291Z,100880.97
2019-02-18T03:25:19.707Z,100881.69
2019-02-18T03:28:45.878Z,100877.01
2019-02-18T03:31:26.676Z,100881.27
2019-02-18T03:34:35.838Z,100881.28
2019-02-18T03:37:16.433Z,100879.44
2019-02-18T03:40:04.183Z,100883.83
2019-02-18T03:42:44.511Z,100873.19
2019-02-18T03:45:31.917Z,100875.31
2019-02-18T03:48:12.817Z,100884.60
2019-02-18T03:51:00.245Z,100883.98
2019-02-18T03:53:41.293Z,100880.28
2019-02-18T03:56:29.357Z,100876.88
2019-02-18T03:59:09.591Z,100882.92
2019-02-18T04:01:57.055Z,100880.28
2019-02-18T04:04:38.680Z,100875.25
2019-02-18T04:07:26.477Z,100879.76
2019-02-18T04:10:07.748Z,100886.84
2019-02-18T04:12:55.380Z,100884.48
2019-02-18T04:15:36.351Z,100874.94
2019-02-18T04:18:23.980Z,100870.03
2019-02-18T04:21:04.085Z,100879.76
2019-02-18T04:23:51.499Z,100875.96
2019-02-18T04:26:32.351Z,100873.92
2019-02-18T04:29:19.954Z,100877.13
2019-02-18T04:32:00.440Z,100877.66
2019-02-18T04:34:47.668Z,100874.86
2019-02-18T04:37:28.342Z,100876.15
2019-02-18T04:40:15.753Z,100873.20
2019-02-18T04:43:03.002Z,100874.09
2019-02-18T04:45:43.490Z,100875.91
2019-02-18T04:48:30.746Z,100877.28
2019-02-18T04:51:11.376Z,100873.10
2019-02-18T04:53:58.574Z,100866.77
2019-02-18T04:56:39.464Z,100862.72
2019-02-18T04:59:26.870Z,100868.42
2019-02-18T05:02:07.517Z,100870.25
2019-02-18T05:04:55.200Z,100869.61
2019-02-18T05:07:35.356Z,100872.25
2019-02-18T05:10:22.577Z,100869.09
2019-02-18T05:13:03.873Z,100871.78
2019-02-18T05:15:44.792Z,100871.46
2019-02-18T05:18:32.037Z,100863.30
2019-02-18T05:21:12.670Z,100866.29
2019-02-18T05:23:59.913Z,100867.31
2019-02-18T05:26:40.640Z,100863.49
2019-02-18T05:29:28.389Z,100871.50
2019-02-18T05:32:09.728Z,100863.83
2019-02-18T05:34:57.230Z,100870.68
2019-02-18T05:37:37.548Z,100867.01
2019-02-18T05:40:24.770Z,100876.17
2019-02-18T05:43:05.513Z,100873.83
2019-02-18T05:45:52.705Z,100869.83
2019-02-18T05:48:33.998Z,100865.48
2019-02-18T05:51:21.520Z,100870.33
2019-02-18T05:54:01.905Z,100872.66
2019-02-18T05:56:49.131Z,100870.13
2019-02-18T05:59:29.950Z,100864.65
2019-02-18T06:05:19.306Z,100872.00
2019-02-18T06:08:06.570Z,100875.17
2019-02-18T06:10:47.258Z,100876.17
2019-02-18T06:13:34.536Z,100874.86
2019-02-18T06:16:41.233Z,100879.50
2019-02-18T06:19:21.498Z,100873.16
2019-02-18T06:22:08.768Z,100876.00
2019-02-18T06:24:48.731Z,100879.86
2019-02-18T06:27:35.946Z,100881.66
2019-02-18T06:30:15.884Z,100885.16
2019-02-18T06:33:03.092Z,100888.51
2019-02-18T06:42:26.287Z,100884.51
2019-02-18T06:45:33.120Z,100887.50
2019-02-18T06:48:03.725Z,100890.66
2019-02-18T06:50:31.508Z,100891.47
2019-02-18T06:52:59.243Z,100890.94
2019-02-18T06:55:27.022Z,100902.16
2019-02-18T06:58:12.740Z,100898.82
2019-02-18T07:00:46.534Z,100897.27
2019-02-18T07:03:34.081Z,100895.45
2019-02-18T07:06:06.028Z,100900.79
2019-02-18T07:08:48.203Z,100900.61
2019-02-18T07:11:35.591Z,100897.59
2019-02-18T07:14:03.353Z,100892.77
2019-02-18T07:16:31.146Z,100896.21
2019-02-18T07:18:58.906Z,100895.86
2019-02-18T07:21:26.704Z,100900.40
2019-02-18T07:23:54.472Z,100902.23
2019-02-18T07:26:22.246Z,100904.36
2019-02-18T07:28:50.058Z,100893.12
2019-02-18T07:31:17.859Z,100899.47
2019-02-18T07:33:45.924Z,100904.50
2019-02-18T07:36:13.893Z,100901.28
2019-02-18T07:38:41.726Z,100901.64
2019-02-18T07:41:09.555Z,100907.80
2019-02-18T07:43:37.340Z,100903.30
2019-02-18T07:46:05.101Z,100902.27
2019-02-18T07:48:32.902Z,100899.58
2019-02-18T07:51:00.866Z,100903.67
2019-02-18T07:53:28.638Z,100903.36
2019-02-18T07:55:56.405Z,100897.75
2019-02-18T07:58:24.154Z,100897.49
2019-02-18T08:00:52.069Z,100899.43
2019-02-18T08:03:19.809Z,100900.11
2019-02-18T08:05:47.575Z,100902.11
2019-02-18T08:08:15.371Z,100897.44
2019-02-18T08:10:43.195Z,100898.24
2019-02-18T08:13:10.961Z,100891.34
2019-02-18T08:15:38.776Z,100895.28
2019-02-18T08:18:06.671Z,100893.84
2019-02-18T08:20:34.449Z,100897.20
2019-02-18T08:23:02.260Z,100890.34
2019-02-18T08:25:30.215Z,100887.39
2019-02-18T08:27:57.960Z,100884.13
2019-02-18T08:30:25.774Z,100886.03
2019-02-18T08:32:53.714Z,100884.66
2019-02-18T08:35:21.464Z,100879.55
2019-02-18T08:37:49.428Z,100878.02
2019-02-18T08:40:22.528Z,100876.70
2019-02-18T08:42:46.892Z,100876.89
2019-02-18T08:45:14.790Z,100883.44
2019-02-18T08:47:42.602Z,100883.41
2019-02-18T08:50:10.692Z,100883.84
2019-02-18T08:52:38.499Z,100875.56
2019-02-18T08:55:08.781Z,100876.25
2019-02-18T08:57:36.577Z,100870.58
2019-02-18T09:00:06.442Z,100870.38
2019-02-18T09:02:34.204Z,100871.42
2019-02-18T09:05:01.954Z,100870.16
2019-02-18T09:07:29.734Z,100863.90
2019-02-18T09:09:57.513Z,100864.91
2019-02-18T09:12:25.301Z,100866.03
2019-02-18T09:14:53.292Z,100860.87
2019-02-18T09:17:21.081Z,100863.00
2019-02-18T09:19:49.002Z,100867.23
2019-02-18T09:22:34.604Z,100861.77
2019-02-18T09:25:14.687Z,100870.48
2019-02-18T09:27:42.456Z,100860.04
2019-02-18T09:30:10.320Z,100857.55
2019-02-18T09:32:38.129Z,100860.78
2019-02-18T09:35:05.928Z,100865.27
2019-02-18T09:37:33.715Z,100862.16
2019-02-18T09:40:01.495Z,100857.47
2019-02-18T09:42:29.245Z,100866.90
2019-02-18T09:44:56.979Z,100854.52
2019-02-18T09:47:24.829Z,100860.67
2019-02-18T09:49:52.658Z,100858.83
2019-02-18T09:52:20.426Z,100857.27
2019-02-18T09:54:48.224Z,100854.13
2019-02-18T09:57:16.015Z,100847.94
2019-02-18T09:59:43.767Z,100842.03
2019-02-18T10:02:11.493Z,100851.78
2019-02-18T10:04:39.301Z,100851.14
2019-02-18T10:07:07.054Z,100851.56
2019-02-18T10:09:34.902Z,100847.84
2019-02-18T10:12:02.784Z,100848.55
2019-02-18T10:14:30.980Z,100841.61
2019-02-18T10:16:58.712Z,100845.12
2019-02-18T10:19:26.496Z,100839.00
2019-02-18T10:21:54.274Z,100840.57
2019-02-18T10:24:22.097Z,100836.54
2019-02-18T10:26:49.854Z,100832.72
2019-02-18T10:29:17.636Z,100829.45
2019-02-18T10:31:45.377Z,100831.92
2019-02-18T10:34:13.165Z,100826.74
2019-02-18T10:36:40.924Z,100830.99
2019-02-18T10:39:08.772Z,100830.19
2019-02-18T10:41:36.514Z,100822.28
2019-02-18T10:44:04.328Z,100828.69
2019-02-18T10:46:32.097Z,100818.95
2019-02-18T10:48:59.887Z,100821.06
2019-02-18T10:51:27.626Z,100821.89
2019-02-18T10:53:55.413Z,100817.16
2019-02-18T10:56:23.149Z,100803.50
2019-02-18T10:58:50.914Z,100793.50
2019-02-18T11:01:18.674Z,100795.69
2019-02-18T11:03:46.455Z,100796.79
2019-02-18T11:06:14.179Z,100800.90
2019-02-18T11:08:41.954Z,100795.58
2019-02-18T11:11:16.730Z,100794.04
2019-02-18T11:13:39.419Z,100790.77
2019-02-18T11:16:07.317Z,100789.00
2019-02-18T11:18:35.085Z,100788.41
2019-02-18T11:21:02.875Z,100777.76
2019-02-18T11:23:30.625Z,100771.59
2019-02-18T11:25:58.949Z,100776.60
2019-02-18T11:28:26.710Z,100772.17
2019-02-18T11:30:54.481Z,100762.79
2019-02-18T11:33:22.246Z,100770.09
2019-02-18T11:35:50.042Z,100770.92
2019-02-18T11:38:18.181Z,100769.33
2019-02-18T11:40:46.237Z,100760.94
2019-02-18T11:43:13.970Z,100761.97
2019-02-18T11:45:41.725Z,100757.62
2019-02-18T11:48:11.308Z,100752.13
2019-02-18T11:50:39.071Z,100741.16
2019-02-18T11:53:07.116Z,100738.18
2019-02-18T11:55:34.915Z,100738.15
2019-02-18T11:58:02.675Z,100726.83
2019-02-18T12:00:31.646Z,100725.09
2019-02-18T12:03:03.710Z,100716.70
2019-02-18T12:05:29.203Z,100707.75
2019-02-18T12:07:58.320Z,100705.78
2019-02-18T12:10:26.132Z,100702.11
2019-02-18T12:12:55.805Z,100698.80
2019-02-18T12:15:23.657Z,100695.84
2019-02-18T12:17:51.473Z,100680.09
2019-02-18T12:20:19.292Z,100674.77
2019-02-18T12:22:47.156Z,100673.83
2019-02-18T12:25:14.971Z,100672.34
2019-02-18T12:27:43.200Z,100673.45
2019-02-18T12:30:12.358Z,100673.45
2019-02-18T12:32:40.159Z,100667.34
2019-02-18T12:35:08.001Z,100676.16
2019-02-18T12:37:37.884Z,100677.55
2019-02-18T12:40:06.253Z,100672.73
2019-02-18T12:42:34.837Z,100670.45
2019-02-18T12:45:02.700Z,100671.95
2019-02-18T12:47:30.894Z,100667.33
2019-02-18T12:50:01.010Z,100669.56
2019-02-18T12:52:29.678Z,100664.47
2019-02-18T12:55:00.216Z,100664.14
2019-02-18T12:57:27.145Z,100663.78
2019-02-18T12:59:55.548Z,100654.11
2019-02-18T13:02:23.510Z,100656.78
2019-02-18T13:04:51.314Z,100658.55
2019-02-18T13:07:19.071Z,100656.45
2019-02-18T13:09:46.862Z,100646.19
2019-02-18T13:12:15.407Z,100637.69
2019-02-18T13:14:43.214Z,100634.27
2019-02-18T13:17:14.221Z,100627.69
2019-02-18T13:19:42.294Z,100627.95
2019-02-18T13:22:10.197Z,100622.36
2019-02-18T13:24:37.949Z,100623.17
2019-02-18T13:27:05.977Z,100617.89
2019-02-18T13:29:33.742Z,100614.73
2019-02-18T13:32:02.966Z,100608.47
2019-02-18T13:34:30.822Z,100609.86
2019-02-18T13:37:01.716Z,100605.32
2019-02-18T13:39:29.449Z,100601.61
2019-02-18T13:41:57.200Z,100604.31
2019-02-18T13:44:25.007Z,100599.64
2019-02-18T13:46:52.746Z,100596.79
2019-02-18T13:49:20.548Z,100591.69
2019-02-18T13:51:56.231Z,100590.03
2019-02-18T13:54:18.227Z,100588.87
2019-02-18T13:56:46.105Z,100587.17
2019-02-18T13:59:14.077Z,100585.38
2019-02-18T14:01:42.097Z,100579.09
2019-02-18T14:04:09.825Z,100581.56
2019-02-18T14:06:37.709Z,100576.09
2019-02-18T14:09:05.984Z,100574.18
2019-02-18T14:11:33.935Z,100563.65
2019-02-18T14:14:02.591Z,100565.50
2019-02-18T14:16:30.702Z,100560.05
2019-02-18T14:18:58.400Z,100559.57
2019-02-18T14:21:26.252Z,100546.38
2019-02-18T14:23:54.045Z,100537.25
2019-02-18T14:26:22.570Z,100532.07
2019-02-18T14:28:50.351Z,100525.20
2019-02-18T14:31:18.130Z,100531.64
2019-02-18T14:33:46.030Z,100518.98
2019-02-18T14:36:14.042Z,100524.11
2019-02-18T14:38:41.855Z,100525.92
2019-02-18T14:41:09.982Z,100517.78
2019-02-18T14:43:37.973Z,100513.05
2019-02-18T14:46:06.357Z,100509.67
2019-02-18T14:48:34.322Z,100509.38
2019-02-18T14:51:02.436Z,100507.22
2019-02-18T14:53:30.325Z,100511.30
2019-02-18T14:55:58.267Z,100504.56
2019-02-18T14:58:26.021Z,100506.20
2019-02-18T15:00:54.015Z,100505.34
2019-02-18T15:03:21.776Z,100504.33
2019-02-18T15:05:49.726Z,100504.41
2019-02-18T15:08:17.537Z,100504.91
2019-02-18T15:10:45.357Z,100505.13
2019-02-18T15:13:13.088Z,100504.69
2019-02-18T15:15:41.171Z,100500.02
2019-02-18T15:18:09.151Z,100497.77
2019-02-18T15:20:37.023Z,100492.47
2019-02-18T15:23:04.879Z,100486.34
2019-02-18T15:25:32.835Z,100486.66
2019-02-18T15:28:00.763Z,100486.64
2019-02-18T15:30:28.541Z,100484.43
2019-02-18T15:32:56.890Z,100481.52
2019-02-18T15:35:24.733Z,100488.95
2019-02-18T15:37:52.663Z,100485.72
2019-02-18T15:40:20.562Z,100484.78
2019-02-18T15:42:48.349Z,100486.85
2019-02-18T15:45:16.240Z,100475.91
2019-02-18T15:47:44.201Z,100477.64
2019-02-18T15:50:13.219Z,100480.70
2019-02-18T15:52:40.974Z,100475.00
2019-02-18T15:55:09.572Z,100479.76
2019-02-18T15:57:37.500Z,100484.41
2019-02-18T16:00:09.052Z,100475.13
2019-02-18T16:02:36.995Z,100473.09
2019-02-18T16:05:05.316Z,100479.53
2019-02-18T16:07:33.233Z,100476.35
2019-02-18T16:10:01.195Z,100472.83
2019-02-18T16:12:29.076Z,100471.52
2019-02-18T16:14:56.812Z,100468.56
2019-02-18T16:17:26.276Z,100470.38
2019-02-18T16:19:53.989Z,100478.27
2019-02-18T16:22:22.058Z,100468.79
2019-02-18T16:24:49.883Z,100474.42
2019-02-18T16:27:17.694Z,100475.49
2019-02-18T16:29:45.460Z,100477.30
2019-02-18T16:32:13.344Z,100483.97
2019-02-18T16:34:41.138Z,100477.64
2019-02-18T16:37:09.234Z,100473.46
2019-02-18T16:39:36.990Z,100473.00
2019-02-18T16:42:05.218Z,100468.94
2019-02-18T16:44:32.990Z,100473.58
2019-02-18T16:47:00.796Z,100465.69
2019-02-18T16:49:28.589Z,100464.20
2019-02-18T16:51:56.393Z,100464.45
2019-02-18T16:54:24.486Z,100467.98
2019-02-18T16:56:52.255Z,100464.14
2019-02-18T16:59:20.006Z,100466.69
2019-02-18T17:01:47.807Z,100475.39
2019-02-18T17:04:15.571Z,100473.34
2019-02-18T17:06:43.386Z,100481.96
2019-02-18T17:09:12.501Z,100481.09
2019-02-18T17:11:40.584Z,100479.06
2019-02-18T17:14:08.341Z,100475.88
2019-02-18T17:16:36.101Z,100475.08
2019-02-18T17:19:03.845Z,100471.31
2019-02-18T17:21:31.683Z,100477.13
2019-02-18T17:23:59.475Z,100477.75
2019-02-18T17:26:27.315Z,100466.91
2019-02-18T17:28:55.575Z,100464.14
2019-02-18T17:31:23.394Z,100460.59
2019-02-18T17:33:51.251Z,100460.25
2019-02-18T17:36:19.037Z,100454.86
2019-02-18T17:38:46.817Z,100459.98
2019-02-18T17:41:14.600Z,100451.68
2019-02-18T17:43:42.362Z,100457.86
2019-02-18T17:46:10.583Z,100461.64
2019-02-18T17:48:38.351Z,100455.44
2019-02-18T17:51:08.496Z,100457.77
2019-02-18T17:53:36.603Z,100454.50
2019-02-18T17:56:04.465Z,100443.87
2019-02-18T17:58:32.227Z,100440.25
2019-02-18T18:01:00.225Z,100438.66
2019-02-18T18:03:27.988Z,100435.44
2019-02-18T18:05:55.909Z,100447.02
2019-02-18T18:08:23.689Z,100446.36
2019-02-18T18:10:51.511Z,100447.52
2019-02-18T18:13:24.976Z,100444.72
2019-02-18T18:15:48.985Z,100443.70
2019-02-18T18:18:17.093Z,100445.67
2019-02-18T18:20:44.897Z,100434.47
2019-02-18T18:23:14.693Z,100436.63
2019-02-18T18:25:42.535Z,100434.36
2019-02-18T18:28:10.329Z,100427.18
2019-02-18T18:30:38.197Z,100434.66
2019-02-18T18:33:05.994Z,100430.04
2019-02-18T18:35:34.184Z,100420.41
2019-02-18T18:38:01.989Z,100430.09
2019-02-18T18:40:29.765Z,100426.81
2019-02-18T18:42:57.550Z,100423.83
2019-02-18T18:45:25.334Z,100415.81
2019-02-18T18:47:53.133Z,100419.72
2019-02-18T18:50:21.057Z,100418.92
2019-02-18T18:52:48.820Z,100411.41
2019-02-18T18:55:16.632Z,100421.37
2019-02-18T18:57:44.426Z,100417.91
2019-02-18T19:00:16.116Z,100411.05
2019-02-18T19:02:43.920Z,100409.14
2019-02-18T19:05:11.800Z,100408.63
2019-02-18T19:07:39.928Z,100410.86
2019-02-18T19:10:07.866Z,100417.11
2019-02-18T19:12:35.797Z,100409.53
2019-02-18T19:15:03.915Z,100411.04
2019-02-18T19:17:34.328Z,100414.03
2019-02-18T19:20:02.187Z,100419.77
2019-02-18T19:22:30.382Z,100417.69
2019-02-18T19:24:58.198Z,100430.72
2019-02-18T19:27:26.004Z,100426.89
2019-02-18T19:29:53.863Z,100436.23
2019-02-18T19:32:21.717Z,100433.97
2019-02-18T19:34:49.591Z,100434.19
2019-02-18T19:37:17.381Z,100431.61
2019-02-18T19:39:45.237Z,100435.23
2019-02-18T19:42:13.015Z,100434.06
2019-02-18T19:44:40.858Z,100422.02
2019-02-18T19:47:08.656Z,100426.16
2019-02-18T19:49:36.547Z,100429.33
2019-02-18T19:52:04.322Z,100428.53
2019-02-18T19:54:32.474Z,100424.30
2019-02-18T19:57:00.321Z,100421.10
2019-02-18T19:59:28.094Z,100423.94
2019-02-18T20:01:55.934Z,100423.31
2019-02-18T20:04:23.777Z,100425.82
2019-02-18T20:06:51.617Z,100428.00
2019-02-18T20:09:19.377Z,100431.98
2019-02-18T20:11:47.207Z,100425.16
2019-02-18T20:14:15.029Z,100427.00
2019-02-18T20:16:43.697Z,100425.59
2019-02-18T20:19:11.575Z,100429.12
2019-02-18T20:21:39.394Z,100422.70
2019-02-18T20:24:07.323Z,100420.41
2019-02-18T20:26:35.547Z,100420.03
2019-02-18T20:29:03.350Z,100417.02
2019-02-18T20:31:31.138Z,100424.27
2019-02-18T20:33:58.965Z,100416.70
2019-02-18T20:36:26.836Z,100417.21
2019-02-18T20:38:54.609Z,100424.45
2019-02-18T20:41:22.452Z,100420.45
2019-02-18T20:43:50.463Z,100423.56
2019-02-18T20:46:18.282Z,100425.94
2019-02-18T20:48:46.090Z,100427.50
2019-02-18T20:51:13.947Z,100423.47
2019-02-18T20:53:41.687Z,100418.81
2019-02-18T20:56:09.517Z,100422.09
2019-02-18T20:58:37.290Z,100420.24
2019-02-18T21:01:05.917Z,100423.94
2019-02-18T21:03:33.729Z,100425.78
2019-02-18T21:06:01.546Z,100426.70
2019-02-18T21:08:29.342Z,100427.93
2019-02-18T21:10:57.097Z,100423.84
2019-02-18T21:13:24.890Z,100423.31
2019-02-18T21:15:52.984Z,100419.77
2019-02-18T21:18:20.827Z,100419.77
2019-02-18T21:20:48.769Z,100417.39
2019-02-18T21:23:16.566Z,100419.77
2019-02-18T21:25:44.379Z,100413.77
2019-02-18T21:28:12.192Z,100419.83
2019-02-18T21:30:39.966Z,100414.87
2019-02-18T21:33:08.076Z,100411.98
2019-02-18T21:35:35.978Z,100414.45
2019-02-18T21:38:03.770Z,100408.84
2019-02-18T21:40:31.541Z,100402.51
2019-02-18T21:42:59.325Z,100408.08
2019-02-18T21:45:27.094Z,100408.12
2019-02-18T21:47:54.852Z,100408.80
2019-02-18T21:50:22.825Z,100408.19
2019-02-18T21:52:50.607Z,100406.75
2019-02-18T21:55:18.387Z,100404.03
2019-02-18T21:57:46.178Z,100400.58
2019-02-18T22:00:21.061Z,100396.95
2019-02-18T22:02:48.997Z,100398.73
2019-02-18T22:05:17.110Z,100397.59
2019-02-18T22:07:44.880Z,100393.73
2019-02-18T22:10:13.185Z,100391.92
2019-02-18T22:12:41.029Z,100396.05
2019-02-18T22:15:11.264Z,100395.58
2019-02-18T22:17:39.031Z,100394.41
2019-02-18T22:20:08.053Z,100387.50
2019-02-18T22:22:36.023Z,100381.56
2019-02-18T22:25:04.591Z,100394.73
2019-02-18T22:27:32.357Z,100402.10
2019-02-18T22:30:00.281Z,100409.05
2019-02-18T22:32:28.055Z,100405.44
2019-02-18T22:34:55.848Z,100405.04
2019-02-18T22:37:23.618Z,100408.26
2019-02-18T22:39:51.696Z,100409.63
2019-02-18T22:42:19.631Z,100405.36
2019-02-18T22:44:47.547Z,100401.98
2019-02-18T22:47:15.495Z,100406.27
2019-02-18T22:49:43.286Z,100405.83
2019-02-18T22:52:11.053Z,100413.63
2019-02-18T22:54:38.983Z,100412.55
2019-02-18T22:57:07.051Z,100409.42
2019-02-18T22:59:34.864Z,100409.52
2019-02-18T23:02:02.725Z,100399.34
2019-02-18T23:04:30.578Z,100403.22
2019-02-18T23:06:58.354Z,100405.64
2019-02-18T23:09:26.133Z,100403.66
2019-02-18T23:11:53.894Z,100401.48
2019-02-18T23:14:21.676Z,100404.75
2019-02-18T23:16:49.435Z,100397.80
2019-02-18T23:19:17.208Z,100396.37
2019-02-18T23:21:45.197Z,100399.14
2019-02-18T23:24:12.951Z,100399.79
2019-02-18T23:26:40.698Z,100398.50
2019-02-18T23:29:08.468Z,100391.34
2019-02-18T23:31:36.292Z,100395.03
2019-02-18T23:34:04.438Z,100401.34
2019-02-18T23:36:32.220Z,100395.48
2019-02-18T23:38:59.960Z,100392.05
2019-02-18T23:41:27.736Z,100400.09
2019-02-18T23:43:55.718Z,100399.84
2019-02-18T23:46:23.456Z,100396.97
2019-02-18T23:48:51.278Z,100397.10
2019-02-18T23:51:19.057Z,100397.66
2019-02-18T23:53:46.966Z,100396.08
2019-02-18T23:56:14.725Z,100403.98
2019-02-18T23:58:42.738Z,100402.00
